Terminal Aerodrome Forecast
Issued by NWS

Current Version | Previous Version | Graphics & Text | Print | Product List | Glossary On
Versions: 1 2 3 4 5 6 7 8 9 10 11 12 13 14 15 16 17
520
FTUS41 KILN 220111 AAA
TAFLCK
TAF AMD
KLCK 220111Z 2201/2224 19008KT P6SM VCTS BKN040CB
     FM220200 20007KT P6SM VCSH BKN040
     FM220400 24006KT P6SM BKN040
     FM220500 28006KT P6SM SCT040=

USA.gov is the U.S. government's official web portal to all federal, state and local government web resources and services.